sensor_id;sensor_type;location;lat;lon;timestamp;pressure;altitude;pressure_sealevel;temperature;humidity
57068;BME280;43391;47.448;18.904;2023-12-29T00:01:39;100095.06;;;-1.05;100.00
57068;BME280;43391;47.448;18.904;2023-12-29T00:04:04;100099.31;;;-1.06;100.00
57068;BME280;43391;47.448;18.904;2023-12-29T00:06:30;100099.31;;;-1.04;100.00
57068;BME280;43391;47.448;18.904;2023-12-29T00:08:55;100095.94;;;-1.00;100.00
57068;BME280;43391;47.448;18.904;2023-12-29T00:11:20;100090.88;;;-0.97;100.00
57068;BME280;43391;47.448;18.904;2023-12-29T00:13:46;100087.44;;;-1.04;100.00
57068;BME280;43391;47.448;18.904;2023-12-29T00:16:11;100086.59;;;-1.01;100.00
57068;BME280;43391;47.448;18.904;2023-12-29T00:18:37;100082.34;;;-0.99;100.00
57068;BME280;43391;47.448;18.904;2023-12-29T00:21:02;100074.72;;;-0.98;100.00
57068;BME280;43391;47.448;18.904;2023-12-29T00:23:27;100076.41;;;-0.98;100.00
57068;BME280;43391;47.448;18.904;2023-12-29T00:25:52;100070.47;;;-0.99;100.00
57068;BME280;43391;47.448;18.904;2023-12-29T00:28:17;100084.91;;;-1.02;100.00
57068;BME280;43391;47.448;18.904;2023-12-29T00:30:43;100079.81;;;-0.98;100.00
57068;BME280;43391;47.448;18.904;2023-12-29T00:33:08;100073.00;;;-1.00;100.00
57068;BME280;43391;47.448;18.904;2023-12-29T00:35:36;100074.72;;;-0.98;100.00
57068;BME280;43391;47.448;18.904;2023-12-29T00:38:01;100075.56;;;-0.96;100.00
57068;BME280;43391;47.448;18.904;2023-12-29T00:40:27;100073.88;;;-0.90;100.00
57068;BME280;43391;47.448;18.904;2023-12-29T00:42:52;100073.06;;;-0.86;100.00
57068;BME280;43391;47.448;18.904;2023-12-29T00:45:17;100072.22;;;-0.84;100.00
57068;BME280;43391;47.448;18.904;2023-12-29T00:47:42;100064.56;;;-0.85;100.00
57068;BME280;43391;47.448;18.904;2023-12-29T00:50:07;100075.63;;;-0.83;100.00
57068;BME280;43391;47.448;18.904;2023-12-29T00:52:33;100070.53;;;-0.83;100.00
57068;BME280;43391;47.448;18.904;2023-12-29T00:54:58;100070.56;;;-0.82;100.00
57068;BME280;43391;47.448;18.904;2023-12-29T00:57:24;100061.19;;;-0.81;100.00
57068;BME280;43391;47.448;18.904;2023-12-29T00:59:49;100062.88;;;-0.89;100.00
57068;BME280;43391;47.448;18.904;2023-12-29T01:02:15;100052.66;;;-0.91;100.00
57068;BME280;43391;47.448;18.904;2023-12-29T01:04:40;100062.00;;;-0.91;100.00
57068;BME280;43391;47.448;18.904;2023-12-29T01:07:05;100068.81;;;-0.92;100.00
57068;BME280;43391;47.448;18.904;2023-12-29T01:09:31;100071.34;;;-0.90;100.00
57068;BME280;43391;47.448;18.904;2023-12-29T01:11:56;100074.78;;;-0.88;100.00
57068;BME280;43391;47.448;18.904;2023-12-29T01:14:21;100079.00;;;-0.87;100.00
57068;BME280;43391;47.448;18.904;2023-12-29T01:16:46;100067.94;;;-0.92;100.00
57068;BME280;43391;47.448;18.904;2023-12-29T01:19:11;100083.28;;;-0.85;100.00
57068;BME280;43391;47.448;18.904;2023-12-29T01:21:40;100075.63;;;-0.83;100.00
57068;BME280;43391;47.448;18.904;2023-12-29T01:24:05;100066.25;;;-0.89;100.00
57068;BME280;43391;47.448;18.904;2023-12-29T01:26:32;100062.88;;;-0.89;100.00
57068;BME280;43391;47.448;18.904;2023-12-29T01:29:01;100065.41;;;-0.86;100.00
57068;BME280;43391;47.448;18.904;2023-12-29T01:31:28;100071.34;;;-0.95;100.00
57068;BME280;43391;47.448;18.904;2023-12-29T01:33:54;100062.84;;;-0.94;100.00
57068;BME280;43391;47.448;18.904;2023-12-29T01:36:19;100059.44;;;-0.91;100.00
57068;BME280;43391;47.448;18.904;2023-12-29T01:38:44;100056.91;;;-0.91;100.00
57068;BME280;43391;47.448;18.904;2023-12-29T01:41:10;100060.31;;;-0.89;100.00
57068;BME280;43391;47.448;18.904;2023-12-29T01:43:35;100041.63;;;-0.87;100.00
57068;BME280;43391;47.448;18.904;2023-12-29T01:46:00;100052.63;;;-0.94;100.00
57068;BME280;43391;47.448;18.904;2023-12-29T01:48:25;100050.13;;;-0.91;100.00
57068;BME280;43391;47.448;18.904;2023-12-29T01:50:51;100042.47;;;-0.92;100.00
57068;BME280;43391;47.448;18.904;2023-12-29T01:53:17;100037.34;;;-0.94;100.00
57068;BME280;43391;47.448;18.904;2023-12-29T01:55:42;100037.34;;;-0.94;100.00
57068;BME280;43391;47.448;18.904;2023-12-29T01:58:08;100035.66;;;-0.95;100.00
57068;BME280;43391;47.448;18.904;2023-12-29T02:00:33;100038.19;;;-0.98;100.00
57068;BME280;43391;47.448;18.904;2023-12-29T02:02:58;100039.03;;;-0.99;100.00
57068;BME280;43391;47.448;18.904;2023-12-29T02:05:24;100033.94;;;-0.96;100.00
57068;BME280;43391;47.448;18.904;2023-12-29T02:07:51;100031.38;;;-1.02;100.00
57068;BME280;43391;47.448;18.904;2023-12-29T02:10:16;100038.16;;;-1.03;100.00
57068;BME280;43391;47.448;18.904;2023-12-29T02:12:42;100031.38;;;-1.04;100.00
57068;BME280;43391;47.448;18.904;2023-12-29T02:15:08;100026.31;;;-0.96;100.00
57068;BME280;43391;47.448;18.904;2023-12-29T02:17:40;100022.06;;;-0.94;100.00
57068;BME280;43391;47.448;18.904;2023-12-29T02:20:07;100025.44;;;-1.01;100.00
57068;BME280;43391;47.448;18.904;2023-12-29T02:22:32;100021.19;;;-1.02;100.00
57068;BME280;43391;47.448;18.904;2023-12-29T02:24:57;100025.41;;;-1.04;100.00
57068;BME280;43391;47.448;18.904;2023-12-29T02:30:20;100012.66;;;-1.04;100.00
57068;BME280;43391;47.448;18.904;2023-12-29T02:32:43;100027.09;;;-1.08;100.00
57068;BME280;43391;47.448;18.904;2023-12-29T02:35:11;100026.25;;;-1.05;100.00
57068;BME280;43391;47.448;18.904;2023-12-29T02:37:37;100032.22;;;-1.03;100.00
57068;BME280;43391;47.448;18.904;2023-12-29T02:40:04;100021.16;;;-1.01;100.00
57068;BME280;43391;47.448;18.904;2023-12-29T02:42:29;100019.50;;;-0.97;100.00
57068;BME280;43391;47.448;18.904;2023-12-29T02:44:54;100021.22;;;-0.95;100.00
57068;BME280;43391;47.448;18.904;2023-12-29T02:47:20;100007.63;;;-0.92;100.00
57068;BME280;43391;47.448;18.904;2023-12-29T02:49:46;100017.81;;;-0.94;100.00
57068;BME280;43391;47.448;18.904;2023-12-29T02:52:11;100019.50;;;-0.94;100.00
57068;BME280;43391;47.448;18.904;2023-12-29T02:54:37;100010.16;;;-0.90;100.00
57068;BME280;43391;47.448;18.904;2023-12-29T02:57:02;100009.34;;;-0.86;100.00
57068;BME280;43391;47.448;18.904;2023-12-29T02:59:27;99994.91;;;-0.81;100.00
57068;BME280;43391;47.448;18.904;2023-12-29T03:01:52;100000.84;;;-0.82;100.00
57068;BME280;43391;47.448;18.904;2023-12-29T03:04:17;100000.88;;;-0.81;100.00
57068;BME280;43391;47.448;18.904;2023-12-29T03:06:43;99987.28;;;-0.76;100.00
57068;BME280;43391;47.448;18.904;2023-12-29T03:09:08;99991.53;;;-0.77;100.00
57068;BME280;43391;47.448;18.904;2023-12-29T03:11:33;100001.72;;;-0.78;100.00
57068;BME280;43391;47.448;18.904;2023-12-29T03:13:58;99990.66;;;-0.84;100.00
57068;BME280;43391;47.448;18.904;2023-12-29T03:16:23;99993.25;;;-0.73;100.00
57068;BME280;43391;47.448;18.904;2023-12-29T03:18:49;99978.75;;;-0.78;100.00
57068;BME280;43391;47.448;18.904;2023-12-29T03:21:14;99991.53;;;-0.69;100.00
57068;BME280;43391;47.448;18.904;2023-12-29T03:23:39;99978.78;;;-0.77;100.00
57068;BME280;43391;47.448;18.904;2023-12-29T03:26:04;99989.81;;;-0.78;100.00
57068;BME280;43391;47.448;18.904;2023-12-29T03:28:29;99986.41;;;-0.85;100.00
57068;BME280;43391;47.448;18.904;2023-12-29T03:30:55;99985.56;;;-0.87;100.00
57068;BME280;43391;47.448;18.904;2023-12-29T03:33:20;99997.44;;;-0.87;100.00
57068;BME280;43391;47.448;18.904;2023-12-29T03:35:45;99995.78;;;-0.81;100.00
57068;BME280;43391;47.448;18.904;2023-12-29T03:38:10;100000.88;;;-0.81;100.00
57068;BME280;43391;47.448;18.904;2023-12-29T03:40:35;99992.38;;;-0.84;100.00
57068;BME280;43391;47.448;18.904;2023-12-29T03:43:01;99992.38;;;-0.84;100.00
57068;BME280;43391;47.448;18.904;2023-12-29T03:45:26;99987.25;;;-0.86;100.00
57068;BME280;43391;47.448;18.904;2023-12-29T03:47:51;99994.03;;;-0.86;100.00
57068;BME280;43391;47.448;18.904;2023-12-29T03:50:16;99985.59;;;-0.54;100.00
57068;BME280;43391;47.448;18.904;2023-12-29T03:52:41;99989.84;;;-0.59;100.00
57068;BME280;43391;47.448;18.904;2023-12-29T03:55:07;99989.00;;;-0.68;100.00
57068;BME280;43391;47.448;18.904;2023-12-29T03:57:32;99980.50;;;-0.73;100.00
57068;BME280;43391;47.448;18.904;2023-12-29T03:59:57;99984.72;;;-0.72;100.00
57068;BME280;43391;47.448;18.904;2023-12-29T04:02:22;99986.44;;;-0.71;100.00
57068;BME280;43391;47.448;18.904;2023-12-29T04:04:48;99988.97;;;-0.77;100.00
57068;BME280;43391;47.448;18.904;2023-12-29T04:07:13;99983.88;;;-0.78;100.00
57068;BME280;43391;47.448;18.904;2023-12-29T04:09:38;99985.59;;;-0.73;100.00
57068;BME280;43391;47.448;18.904;2023-12-29T04:12:03;99990.66;;;-0.84;100.00
57068;BME280;43391;47.448;18.904;2023-12-29T04:14:29;99993.19;;;-0.84;100.00
57068;BME280;43391;47.448;18.904;2023-12-29T04:16:54;99986.41;;;-0.89;100.00
57068;BME280;43391;47.448;18.904;2023-12-29T04:19:19;99999.13;;;-0.97;100.00
57068;BME280;43391;47.448;18.904;2023-12-29T04:21:44;99988.09;;;-0.90;100.00
57068;BME280;43391;47.448;18.904;2023-12-29T04:24:09;99994.00;;;-1.00;100.00
57068;BME280;43391;47.448;18.904;2023-12-29T04:26:35;99999.09;;;-1.07;100.00
57068;BME280;43391;47.448;18.904;2023-12-29T04:29:01;100010.94;;;-1.13;100.00
57068;BME280;43391;47.448;18.904;2023-12-29T04:31:26;100005.00;;;-1.15;100.00
57068;BME280;43391;47.448;18.904;2023-12-29T04:33:51;100009.22;;;-1.19;100.00
57068;BME280;43391;47.448;18.904;2023-12-29T04:36:16;100010.09;;;-1.17;100.00
57068;BME280;43391;47.448;18.904;2023-12-29T04:38:41;99999.88;;;-1.20;100.00
57068;BME280;43391;47.448;18.904;2023-12-29T04:41:06;99999.00;;;-1.25;100.00
57068;BME280;43391;47.448;18.904;2023-12-29T04:43:32;99999.84;;;-1.25;100.00
57068;BME280;43391;47.448;18.904;2023-12-29T04:45:57;100004.09;;;-1.25;100.00
57068;BME280;43391;47.448;18.904;2023-12-29T04:48:22;100008.31;;;-1.29;100.00
57068;BME280;43391;47.448;18.904;2023-12-29T04:50:48;100004.09;;;-1.25;100.00
57068;BME280;43391;47.448;18.904;2023-12-29T04:53:13;100008.34;;;-1.27;100.00
57068;BME280;43391;47.448;18.904;2023-12-29T04:55:38;100003.25;;;-1.26;100.00
57068;BME280;43391;47.448;18.904;2023-12-29T04:58:03;99999.81;;;-1.29;100.00
57068;BME280;43391;47.448;18.904;2023-12-29T05:00:28;99993.91;;;-1.25;100.00
57068;BME280;43391;47.448;18.904;2023-12-29T05:02:54;100010.91;;;-1.26;100.00
57068;BME280;43391;47.448;18.904;2023-12-29T05:05:19;99997.28;;;-1.31;100.00
57068;BME280;43391;47.448;18.904;2023-12-29T05:07:44;99995.56;;;-1.32;100.00
57068;BME280;43391;47.448;18.904;2023-12-29T05:10:09;99993.88;;;-1.31;100.00
57068;BME280;43391;47.448;18.904;2023-12-29T05:12:34;100002.38;;;-1.29;100.00
57068;BME280;43391;47.448;18.904;2023-12-29T05:15:00;99988.78;;;-1.27;100.00
57068;BME280;43391;47.448;18.904;2023-12-29T05:17:25;99993.88;;;-1.33;100.00
57068;BME280;43391;47.448;18.904;2023-12-29T05:19:50;99996.41;;;-1.33;100.00
57068;BME280;43391;47.448;18.904;2023-12-29T05:22:15;99989.59;;;-1.36;100.00
57068;BME280;43391;47.448;18.904;2023-12-29T05:24:42;100008.34;;;-1.27;100.00
57068;BME280;43391;47.448;18.904;2023-12-29T05:27:07;100001.53;;;-1.30;100.00
57068;BME280;43391;47.448;18.904;2023-12-29T05:29:33;99997.25;;;-1.36;100.00
57068;BME280;43391;47.448;18.904;2023-12-29T05:31:58;100014.28;;;-1.28;100.00
57068;BME280;43391;47.448;18.904;2023-12-29T05:34:23;100001.53;;;-1.31;100.00
57068;BME280;43391;47.448;18.904;2023-12-29T05:36:48;100007.47;;;-1.32;100.00
57068;BME280;43391;47.448;18.904;2023-12-29T05:39:13;100018.50;;;-1.29;100.00
57068;BME280;43391;47.448;18.904;2023-12-29T05:41:39;100025.28;;;-1.34;100.00
57068;BME280;43391;47.448;18.904;2023-12-29T05:44:04;100015.94;;;-1.32;100.00
57068;BME280;43391;47.448;18.904;2023-12-29T05:46:29;100021.91;;;-1.31;100.00
57068;BME280;43391;47.448;18.904;2023-12-29T05:48:54;100016.78;;;-1.33;100.00
57068;BME280;43391;47.448;18.904;2023-12-29T05:51:19;100019.34;;;-1.31;100.00
57068;BME280;43391;47.448;18.904;2023-12-29T05:53:45;100012.56;;;-1.32;100.00
57068;BME280;43391;47.448;18.904;2023-12-29T05:56:11;100017.63;;;-1.34;100.00
57068;BME280;43391;47.448;18.904;2023-12-29T05:58:37;100015.94;;;-1.35;100.00
57068;BME280;43391;47.448;18.904;2023-12-29T06:01:02;100015.09;;;-1.32;100.00
57068;BME280;43391;47.448;18.904;2023-12-29T06:03:27;100011.69;;;-1.35;100.00
57068;BME280;43391;47.448;18.904;2023-12-29T06:05:53;100019.34;;;-1.36;100.00
57068;BME280;43391;47.448;18.904;2023-12-29T06:08:19;100020.13;;;-1.42;100.00
57068;BME280;43391;47.448;18.904;2023-12-29T06:10:44;100020.94;;;-1.48;100.00
57068;BME280;43391;47.448;18.904;2023-12-29T06:13:09;100028.59;;;-1.46;100.00
57068;BME280;43391;47.448;18.904;2023-12-29T06:15:34;100040.50;;;-1.48;100.00
57068;BME280;43391;47.448;18.904;2023-12-29T06:18:01;100038.78;;;-1.49;100.00
57068;BME280;43391;47.448;18.904;2023-12-29T06:20:26;100039.63;;;-1.49;100.00
57068;BME280;43391;47.448;18.904;2023-12-29T06:22:51;100037.94;;;-1.48;100.00
57068;BME280;43391;47.448;18.904;2023-12-29T06:25:17;100036.19;;;-1.54;100.00
57068;BME280;43391;47.448;18.904;2023-12-29T06:27:42;100036.22;;;-1.52;100.00
57068;BME280;43391;47.448;18.904;2023-12-29T06:30:08;100039.56;;;-1.61;100.00
57068;BME280;43391;47.448;18.904;2023-12-29T06:32:33;100037.00;;;-1.63;100.00
57068;BME280;43391;47.448;18.904;2023-12-29T06:34:58;100030.22;;;-1.59;100.00
57068;BME280;43391;47.448;18.904;2023-12-29T06:37:24;100033.63;;;-1.58;100.00
57068;BME280;43391;47.448;18.904;2023-12-29T06:39:49;100041.28;;;-1.58;100.00
57068;BME280;43391;47.448;18.904;2023-12-29T06:42:14;100037.88;;;-1.56;100.00
57068;BME280;43391;47.448;18.904;2023-12-29T06:44:39;100043.03;;;-1.43;100.00
57068;BME280;43391;47.448;18.904;2023-12-29T06:47:04;100038.81;;;-1.43;100.00
57068;BME280;43391;47.448;18.904;2023-12-29T06:49:31;100038.81;;;-1.40;100.00
57068;BME280;43391;47.448;18.904;2023-12-29T06:51:57;100046.47;;;-1.38;100.00
57068;BME280;43391;47.448;18.904;2023-12-29T06:54:22;100044.81;;;-1.33;100.00
57068;BME280;43391;47.448;18.904;2023-12-29T06:56:47;100050.91;;;-1.08;100.00
57068;BME280;43391;47.448;18.904;2023-12-29T06:59:13;100047.47;;;-1.10;100.00
57068;BME280;43391;47.448;18.904;2023-12-29T07:01:38;100048.28;;;-1.14;100.00
57068;BME280;43391;47.448;18.904;2023-12-29T07:04:05;100045.84;;;-0.90;100.00
57068;BME280;43391;47.448;18.904;2023-12-29T07:06:30;100053.53;;;-0.87;100.00
57068;BME280;43391;47.448;18.904;2023-12-29T07:08:55;100051.78;;;-0.98;100.00
57068;BME280;43391;47.448;18.904;2023-12-29T07:11:21;100043.28;;;-1.01;100.00
57068;BME280;43391;47.448;18.904;2023-12-29T07:13:46;100044.09;;;-1.05;100.00
57068;BME280;43391;47.448;18.904;2023-12-29T07:16:11;100049.22;;;-1.02;100.00
57068;BME280;43391;47.448;18.904;2023-12-29T07:18:36;100044.97;;;-1.00;100.00
57068;BME280;43391;47.448;18.904;2023-12-29T07:21:01;100049.19;;;-1.05;100.00
57068;BME280;43391;47.448;18.904;2023-12-29T07:23:27;100055.09;;;-1.11;100.00
57068;BME280;43391;47.448;18.904;2023-12-29T07:25:52;100054.28;;;-1.05;100.00
57068;BME280;43391;47.448;18.904;2023-12-29T07:28:17;100059.44;;;-0.96;100.00
57068;BME280;43391;47.448;18.904;2023-12-29T07:30:43;100061.13;;;-1.01;100.00
57068;BME280;43391;47.448;18.904;2023-12-29T07:33:08;100050.91;;;-1.03;100.00
57068;BME280;43391;47.448;18.904;2023-12-29T07:35:34;100053.44;;;-1.08;100.00
57068;BME280;43391;47.448;18.904;2023-12-29T07:37:59;100056.81;;;-1.12;100.00
57068;BME280;43391;47.448;18.904;2023-12-29T07:40:24;100053.44;;;-1.08;100.00
57068;BME280;43391;47.448;18.904;2023-12-29T07:42:49;100054.28;;;-1.07;100.00
57068;BME280;43391;47.448;18.904;2023-12-29T07:45:15;100050.03;;;-1.03;100.00
57068;BME280;43391;47.448;18.904;2023-12-29T07:47:41;100049.22;;;-0.99;100.00
57068;BME280;43391;47.448;18.904;2023-12-29T07:50:06;100049.25;;;-0.91;100.00
57068;BME280;43391;47.448;18.904;2023-12-29T07:52:31;100040.81;;;-0.84;100.00
57068;BME280;43391;47.448;18.904;2023-12-29T07:54:56;100039.94;;;-0.78;100.00
57068;BME280;43391;47.448;18.904;2023-12-29T07:57:22;100038.28;;;-0.70;100.00
57068;BME280;43391;47.448;18.904;2023-12-29T07:59:47;100038.28;;;-0.61;100.00
57068;BME280;43391;47.448;18.904;2023-12-29T08:02:12;100040.84;;;-0.59;100.00
57068;BME280;43391;47.448;18.904;2023-12-29T08:04:38;100040.00;;;-0.58;100.00
57068;BME280;43391;47.448;18.904;2023-12-29T08:07:03;100041.69;;;-0.68;100.00
57068;BME280;43391;47.448;18.904;2023-12-29T08:09:28;100045.09;;;-0.69;100.00
57068;BME280;43391;47.448;18.904;2023-12-29T08:11:54;100057.00;;;-0.67;100.00
57068;BME280;43391;47.448;18.904;2023-12-29T08:14:19;100055.28;;;-0.71;100.00
57068;BME280;43391;47.448;18.904;2023-12-29T08:16:44;100063.75;;;-0.79;100.00
57068;BME280;43391;47.448;18.904;2023-12-29T08:19:09;100071.38;;;-0.86;100.00
57068;BME280;43391;47.448;18.904;2023-12-29T08:21:35;100072.22;;;-0.85;100.00
57068;BME280;43391;47.448;18.904;2023-12-29T08:24:00;100063.72;;;-0.83;100.00
57068;BME280;43391;47.448;18.904;2023-12-29T08:26:25;100069.69;;;-0.76;100.00
57068;BME280;43391;47.448;18.904;2023-12-29T08:28:51;100070.59;;;-0.64;100.00
57068;BME280;43391;47.448;18.904;2023-12-29T08:31:17;100055.31;;;-0.60;100.00
57068;BME280;43391;47.448;18.904;2023-12-29T08:33:43;100062.13;;;-0.52;100.00
57068;BME280;43391;47.448;18.904;2023-12-29T08:36:08;100066.41;;;-0.47;100.00
57068;BME280;43391;47.448;18.904;2023-12-29T08:38:33;100060.47;;;-0.32;100.00
57068;BME280;43391;47.448;18.904;2023-12-29T08:40:59;100062.19;;;-0.17;100.00
57068;BME280;43391;47.448;18.904;2023-12-29T08:43:24;100065.59;;;0.03;100.00
57068;BME280;43391;47.448;18.904;2023-12-29T08:45:49;100056.25;;;0.23;100.00
57068;BME280;43391;47.448;18.904;2023-12-29T08:48:15;100062.19;;;0.41;100.00
57068;BME280;43391;47.448;18.904;2023-12-29T08:50:40;100061.31;;;0.59;100.00
57068;BME280;43391;47.448;18.904;2023-12-29T08:53:06;100066.41;;;0.73;100.00
57068;BME280;43391;47.448;18.904;2023-12-29T08:55:31;100055.25;;;0.95;100.00
57068;BME280;43391;47.448;18.904;2023-12-29T08:57:57;100056.88;;;1.19;100.00
57068;BME280;43391;47.448;18.904;2023-12-29T09:00:22;100061.03;;;1.39;100.00
57068;BME280;43391;47.448;18.904;2023-12-29T09:02:47;100062.69;;;1.52;100.00
57068;BME280;43391;47.448;18.904;2023-12-29T09:05:13;100069.41;;;1.66;100.00
57068;BME280;43391;47.448;18.904;2023-12-29T09:07:38;100075.25;;;1.88;100.00
57068;BME280;43391;47.448;18.904;2023-12-29T09:10:03;100069.13;;;2.08;100.00
57068;BME280;43391;47.448;18.904;2023-12-29T09:12:32;100069.88;;;2.22;100.00
57068;BME280;43391;47.448;18.904;2023-12-29T09:14:58;100063.69;;;2.44;100.00
57068;BME280;43391;47.448;18.904;2023-12-29T09:17:23;100059.16;;;2.71;100.00
57068;BME280;43391;47.448;18.904;2023-12-29T09:19:48;100057.25;;;2.90;100.00
57068;BME280;43391;47.448;18.904;2023-12-29T09:22:13;100046.66;;;3.19;100.00
57068;BME280;43391;47.448;18.904;2023-12-29T09:24:38;100035.22;;;3.42;100.00
57068;BME280;43391;47.448;18.904;2023-12-29T09:27:04;100044.34;;;3.62;100.00
57068;BME280;43391;47.448;18.904;2023-12-29T09:29:29;100044.94;;;3.80;100.00
57068;BME280;43391;47.448;18.904;2023-12-29T09:31:54;100045.44;;;4.04;100.00
57068;BME280;43391;47.448;18.904;2023-12-29T09:34:20;100047.72;;;4.21;100.00
57068;BME280;43391;47.448;18.904;2023-12-29T09:36:45;100055.72;;;4.54;100.00
57068;BME280;43391;47.448;18.904;2023-12-29T09:39:10;100055.06;;;4.88;100.00
57068;BME280;43391;47.448;18.904;2023-12-29T09:41:35;100056.44;;;5.05;100.00
57068;BME280;43391;47.448;18.904;2023-12-29T09:44:03;100056.53;;;5.02;100.00
57068;BME280;43391;47.448;18.904;2023-12-29T09:46:31;100054.69;;;5.09;100.00
57068;BME280;43391;47.448;18.904;2023-12-29T09:48:57;100057.84;;;5.22;100.00
57068;BME280;43391;47.448;18.904;2023-12-29T09:51:24;100056.59;;;5.40;100.00
57068;BME280;43391;47.448;18.904;2023-12-29T09:53:50;100063.19;;;5.53;100.00
57068;BME280;43391;47.448;18.904;2023-12-29T09:56:16;100064.47;;;5.73;100.00
57068;BME280;43391;47.448;18.904;2023-12-29T09:58:42;100059.94;;;5.83;100.00
57068;BME280;43391;47.448;18.904;2023-12-29T10:01:09;100037.34;;;5.94;100.00
57068;BME280;43391;47.448;18.904;2023-12-29T10:03:35;100037.03;;;6.08;100.00
57068;BME280;43391;47.448;18.904;2023-12-29T10:06:00;100038.09;;;6.34;100.00
57068;BME280;43391;47.448;18.904;2023-12-29T10:08:28;100042.84;;;6.50;100.00
57068;BME280;43391;47.448;18.904;2023-12-29T10:10:57;100034.81;;;6.62;100.00
57068;BME280;43391;47.448;18.904;2023-12-29T10:13:23;100037.53;;;6.88;100.00
57068;BME280;43391;47.448;18.904;2023-12-29T10:15:55;100030.34;;;6.99;100.00
57068;BME280;43391;47.448;18.904;2023-12-29T10:18:24;100035.91;;;7.15;100.00
57068;BME280;43391;47.448;18.904;2023-12-29T10:21:02;100030.41;;;7.26;100.00
57068;BME280;43391;47.448;18.904;2023-12-29T10:23:40;100026.75;;;7.35;100.00
57068;BME280;43391;47.448;18.904;2023-12-29T10:26:07;100030.06;;;7.39;100.00
57068;BME280;43391;47.448;18.904;2023-12-29T10:28:32;100032.16;;;7.56;100.00
57068;BME280;43391;47.448;18.904;2023-12-29T10:30:57;100021.38;;;7.70;100.00
57068;BME280;43391;47.448;18.904;2023-12-29T10:33:23;100024.34;;;7.84;100.00
57068;BME280;43391;47.448;18.904;2023-12-29T10:35:59;100025.81;;;7.93;100.00
57068;BME280;43391;47.448;18.904;2023-12-29T10:38:27;100021.59;;;8.16;100.00
57068;BME280;43391;47.448;18.904;2023-12-29T10:40:53;100012.69;;;8.25;100.00
57068;BME280;43391;47.448;18.904;2023-12-29T10:43:22;100013.41;;;8.29;100.00
57068;BME280;43391;47.448;18.904;2023-12-29T10:45:47;100018.91;;;8.45;100.00
57068;BME280;43391;47.448;18.904;2023-12-29T10:48:12;100013.38;;;8.56;100.00
57068;BME280;43391;47.448;18.904;2023-12-29T10:50:46;99999.88;;;8.71;100.00
57068;BME280;43391;47.448;18.904;2023-12-29T10:53:11;99997.50;;;8.90;100.00
57068;BME280;43391;47.448;18.904;2023-12-29T10:55:37;99999.78;;;8.74;100.00
57068;BME280;43391;47.448;18.904;2023-12-29T10:58:02;99993.56;;;8.80;100.00
57068;BME280;43391;47.448;18.904;2023-12-29T11:00:31;99992.13;;;8.95;100.00
57068;BME280;43391;47.448;18.904;2023-12-29T11:02:57;99986.94;;;8.95;100.00
57068;BME280;43391;47.448;18.904;2023-12-29T11:05:25;99985.56;;;8.86;100.00
57068;BME280;43391;47.448;18.904;2023-12-29T11:07:50;99985.31;;;8.93;100.00
57068;BME280;43391;47.448;18.904;2023-12-29T11:10:18;99972.59;;;8.86;100.00
57068;BME280;43391;47.448;18.904;2023-12-29T11:12:45;99981.47;;;8.79;100.00
57068;BME280;43391;47.448;18.904;2023-12-29T11:15:11;99980.53;;;8.82;100.00
57068;BME280;43391;47.448;18.904;2023-12-29T11:17:38;99973.03;;;8.74;100.00
57068;BME280;43391;47.448;18.904;2023-12-29T11:20:03;99973.13;;;8.72;100.00
57068;BME280;43391;47.448;18.904;2023-12-29T11:22:30;99972.31;;;8.70;100.00
57068;BME280;43391;47.448;18.904;2023-12-29T11:24:56;99963.63;;;8.47;100.00
57068;BME280;43391;47.448;18.904;2023-12-29T11:27:25;99954.31;;;8.42;100.00
57068;BME280;43391;47.448;18.904;2023-12-29T11:29:51;99947.88;;;8.30;100.00
57068;BME280;43391;47.448;18.904;2023-12-29T11:32:22;99949.09;;;8.19;100.00
57068;BME280;43391;47.448;18.904;2023-12-29T11:34:51;99941.34;;;8.19;100.00
57068;BME280;43391;47.448;18.904;2023-12-29T11:39:48;99939.09;;;8.59;100.00
57068;BME280;43391;47.448;18.904;2023-12-29T11:42:26;99938.19;;;9.07;100.00
57068;BME280;43391;47.448;18.904;2023-12-29T11:44:54;99933.22;;;9.45;100.00
57068;BME280;43391;47.448;18.904;2023-12-29T11:47:33;99936.38;;;9.74;100.00
57068;BME280;43391;47.448;18.904;2023-12-29T11:49:59;99938.03;;;10.37;100.00
57068;BME280;43391;47.448;18.904;2023-12-29T11:52:38;99926.00;;;10.75;100.00
57068;BME280;43391;47.448;18.904;2023-12-29T11:55:08;99931.31;;;10.72;100.00
57068;BME280;43391;47.448;18.904;2023-12-29T11:57:33;99932.78;;;10.39;100.00
57068;BME280;43391;47.448;18.904;2023-12-29T11:59:58;99929.09;;;10.03;100.00
57068;BME280;43391;47.448;18.904;2023-12-29T12:02:27;99928.03;;;10.28;100.00
57068;BME280;43391;47.448;18.904;2023-12-29T12:04:52;99918.97;;;12.21;94.76
57068;BME280;43391;47.448;18.904;2023-12-29T12:07:56;99928.34;;;14.71;75.79
57068;BME280;43391;47.448;18.904;2023-12-29T12:10:28;99928.19;;;17.47;58.20
57068;BME280;43391;47.448;18.904;2023-12-29T12:12:58;99922.72;;;18.54;50.81
57068;BME280;43391;47.448;18.904;2023-12-29T12:17:53;99924.06;;;19.04;46.03
57068;BME280;43391;47.448;18.904;2023-12-29T12:20:18;99919.06;;;16.91;51.24
57068;BME280;43391;47.448;18.904;2023-12-29T12:22:44;99913.16;;;15.20;58.51
57068;BME280;43391;47.448;18.904;2023-12-29T12:25:11;99910.69;;;13.58;67.42
57068;BME280;43391;47.448;18.904;2023-12-29T12:27:37;99905.72;;;12.42;77.41
57068;BME280;43391;47.448;18.904;2023-12-29T12:30:02;99902.91;;;11.60;86.44
57068;BME280;43391;47.448;18.904;2023-12-29T12:32:29;99891.78;;;11.03;93.54
57068;BME280;43391;47.448;18.904;2023-12-29T12:34:54;99890.81;;;11.06;95.42
57068;BME280;43391;47.448;18.904;2023-12-29T12:37:23;99894.16;;;11.08;95.87